sensor_id;sensor_type;location;lat;lon;timestamp;pressure;altitude;pressure_sealevel;temperature;humidity
23589;BME280;11972;48.078;11.876;2024-01-30T00:01:30;96857.34;;;-2.52;100.00
23589;BME280;11972;48.078;11.876;2024-01-30T00:05:30;96858.38;;;-2.56;100.00
23589;BME280;11972;48.078;11.876;2024-01-30T00:09:31;96845.66;;;-2.60;100.00
23589;BME280;11972;48.078;11.876;2024-01-30T00:13:31;96850.13;;;-2.64;100.00
23589;BME280;11972;48.078;11.876;2024-01-30T00:17:31;96858.09;;;-2.68;100.00
23589;BME280;11972;48.078;11.876;2024-01-30T00:21:32;96857.28;;;-2.69;100.00
23589;BME280;11972;48.078;11.876;2024-01-30T00:25:32;96862.56;;;-2.72;100.00
23589;BME280;11972;48.078;11.876;2024-01-30T00:29:33;96854.06;;;-2.74;100.00
23589;BME280;11972;48.078;11.876;2024-01-30T00:33:34;96850.00;;;-2.80;100.00
23589;BME280;11972;48.078;11.876;2024-01-30T00:37:34;96868.16;;;-2.81;100.00
23589;BME280;11972;48.078;11.876;2024-01-30T00:41:35;96855.34;;;-2.84;100.00
23589;BME280;11972;48.078;11.876;2024-01-30T00:45:35;96857.81;;;-2.81;100.00
23589;BME280;11972;48.078;11.876;2024-01-30T00:49:36;96856.00;;;-2.79;100.00
23589;BME280;11972;48.078;11.876;2024-01-30T00:53:36;96852.66;;;-2.81;100.00
23589;BME280;11972;48.078;11.876;2024-01-30T00:57:36;96861.31;;;-2.82;100.00
23589;BME280;11972;48.078;11.876;2024-01-30T01:01:37;96847.47;;;-2.81;100.00
23589;BME280;11972;48.078;11.876;2024-01-30T01:05:37;96856.16;;;-2.82;100.00
23589;BME280;11972;48.078;11.876;2024-01-30T01:09:37;96857.81;;;-2.81;100.00
23589;BME280;11972;48.078;11.876;2024-01-30T01:13:38;96851.88;;;-2.83;100.00
23589;BME280;11972;48.078;11.876;2024-01-30T01:17:38;96857.25;;;-2.88;100.00
23589;BME280;11972;48.078;11.876;2024-01-30T01:21:39;96856.41;;;-2.88;100.00
23589;BME280;11972;48.078;11.876;2024-01-30T01:25:39;96861.72;;;-2.91;100.00
23589;BME280;11972;48.078;11.876;2024-01-30T01:29:39;96864.22;;;-2.90;100.00
23589;BME280;11972;48.078;11.876;2024-01-30T01:33:40;96860.91;;;-2.92;100.00
23589;BME280;11972;48.078;11.876;2024-01-30T01:37:40;96856.69;;;-2.94;100.00
23589;BME280;11972;48.078;11.876;2024-01-30T01:41:40;96856.69;;;-2.94;100.00
23589;BME280;11972;48.078;11.876;2024-01-30T01:45:41;96860.91;;;-2.92;100.00
23589;BME280;11972;48.078;11.876;2024-01-30T01:49:42;96862.78;;;-2.95;100.00
23589;BME280;11972;48.078;11.876;2024-01-30T01:53:42;96854.31;;;-2.99;100.00
23589;BME280;11972;48.078;11.876;2024-01-30T01:57:43;96858.75;;;-3.03;100.00
23589;BME280;11972;48.078;11.876;2024-01-30T02:01:43;96847.59;;;-3.03;100.00
23589;BME280;11972;48.078;11.876;2024-01-30T02:05:45;96850.09;;;-3.02;100.00
23589;BME280;11972;48.078;11.876;2024-01-30T02:09:46;96851.84;;;-3.02;100.00
23589;BME280;11972;48.078;11.876;2024-01-30T02:13:46;96841.44;;;-3.01;100.00
23589;BME280;11972;48.078;11.876;2024-01-30T02:17:47;96856.94;;;-3.01;100.00
23589;BME280;11972;48.078;11.876;2024-01-30T02:21:47;96853.47;;;-3.00;100.00
23589;BME280;11972;48.078;11.876;2024-01-30T02:25:48;96852.63;;;-3.00;100.00
23589;BME280;11972;48.078;11.876;2024-01-30T02:29:48;96865.59;;;-3.02;100.00
23589;BME280;11972;48.078;11.876;2024-01-30T02:33:49;96860.56;;;-3.05;100.00
23589;BME280;11972;48.078;11.876;2024-01-30T02:37:49;96856.38;;;-3.07;100.00
23589;BME280;11972;48.078;11.876;2024-01-30T02:41:49;96852.16;;;-3.10;100.00
23589;BME280;11972;48.078;11.876;2024-01-30T02:45:50;96859.16;;;-3.12;100.00
23589;BME280;11972;48.078;11.876;2024-01-30T02:49:50;96847.13;;;-3.13;100.00
23589;BME280;11972;48.078;11.876;2024-01-30T02:53:52;96847.19;;;-3.14;100.00
23589;BME280;11972;48.078;11.876;2024-01-30T02:57:52;96848.84;;;-3.12;100.00
23589;BME280;11972;48.078;11.876;2024-01-30T03:01:52;96845.47;;;-3.14;100.00
23589;BME280;11972;48.078;11.876;2024-01-30T03:05:53;96844.75;;;-3.17;100.00
23589;BME280;11972;48.078;11.876;2024-01-30T03:09:53;96844.03;;;-3.21;100.00
23589;BME280;11972;48.078;11.876;2024-01-30T03:13:55;96838.19;;;-3.25;100.00
23589;BME280;11972;48.078;11.876;2024-01-30T03:17:56;96834.72;;;-3.25;100.00
23589;BME280;11972;48.078;11.876;2024-01-30T03:21:56;96835.59;;;-3.25;100.00
23589;BME280;11972;48.078;11.876;2024-01-30T03:25:56;96839.03;;;-3.24;100.00
23589;BME280;11972;48.078;11.876;2024-01-30T03:29:57;96839.78;;;-3.22;100.00
23589;BME280;11972;48.078;11.876;2024-01-30T03:33:57;96838.88;;;-3.21;100.00
23589;BME280;11972;48.078;11.876;2024-01-30T03:37:58;96831.09;;;-3.21;100.00
23589;BME280;11972;48.078;11.876;2024-01-30T03:41:58;96833.69;;;-3.21;100.00
23589;BME280;11972;48.078;11.876;2024-01-30T03:45:59;96832.03;;;-3.22;100.00
23589;BME280;11972;48.078;11.876;2024-01-30T03:49:59;96832.03;;;-3.22;100.00
23589;BME280;11972;48.078;11.876;2024-01-30T03:54:00;96824.28;;;-3.22;100.00
23589;BME280;11972;48.078;11.876;2024-01-30T03:58:00;96826.84;;;-3.22;100.00
23589;BME280;11972;48.078;11.876;2024-01-30T04:02:00;96823.34;;;-3.21;100.00
23589;BME280;11972;48.078;11.876;2024-01-30T04:06:01;96831.09;;;-3.21;100.00
23589;BME280;11972;48.078;11.876;2024-01-30T04:10:01;96826.03;;;-3.22;100.00
23589;BME280;11972;48.078;11.876;2024-01-30T04:14:01;96822.53;;;-3.21;100.00
23589;BME280;11972;48.078;11.876;2024-01-30T04:18:02;96826.72;;;-3.19;100.00
23589;BME280;11972;48.078;11.876;2024-01-30T04:22:02;96820.66;;;-3.18;100.00
23589;BME280;11972;48.078;11.876;2024-01-30T04:26:03;96813.81;;;-3.19;100.00
23589;BME280;11972;48.078;11.876;2024-01-30T04:30:03;96822.41;;;-3.18;100.00
23589;BME280;11972;48.078;11.876;2024-01-30T04:34:04;96822.41;;;-3.18;100.00
23589;BME280;11972;48.078;11.876;2024-01-30T04:38:04;96818.19;;;-3.21;100.00
23589;BME280;11972;48.078;11.876;2024-01-30T04:42:05;96809.56;;;-3.20;100.00
23589;BME280;11972;48.078;11.876;2024-01-30T04:46:05;96815.69;;;-3.22;100.00
23589;BME280;11972;48.078;11.876;2024-01-30T04:50:06;96816.53;;;-3.22;100.00
23589;BME280;11972;48.078;11.876;2024-01-30T04:54:07;96818.19;;;-3.21;100.00
23589;BME280;11972;48.078;11.876;2024-01-30T04:58:07;96816.53;;;-3.22;100.00
23589;BME280;11972;48.078;11.876;2024-01-30T05:02:08;96826.09;;;-3.24;100.00
23589;BME280;11972;48.078;11.876;2024-01-30T05:06:08;96825.19;;;-3.23;100.00
23589;BME280;11972;48.078;11.876;2024-01-30T05:10:09;96830.34;;;-3.23;100.00
23589;BME280;11972;48.078;11.876;2024-01-30T05:14:09;96822.59;;;-3.23;100.00
23589;BME280;11972;48.078;11.876;2024-01-30T05:18:11;96833.00;;;-3.25;100.00
23589;BME280;11972;48.078;11.876;2024-01-30T05:22:11;96841.53;;;-3.22;100.00
23589;BME280;11972;48.078;11.876;2024-01-30T05:26:15;96835.53;;;-3.23;100.00
23589;BME280;11972;48.078;11.876;2024-01-30T05:30:15;96835.41;;;-3.20;100.00
23589;BME280;11972;48.078;11.876;2024-01-30T05:34:16;96837.19;;;-3.22;100.00
23589;BME280;11972;48.078;11.876;2024-01-30T05:38:16;96839.66;;;-3.19;100.00
23589;BME280;11972;48.078;11.876;2024-01-30T05:42:16;96840.56;;;-3.20;100.00
23589;BME280;11972;48.078;11.876;2024-01-30T05:46:17;96839.78;;;-3.22;100.00
23589;BME280;11972;48.078;11.876;2024-01-30T05:50:17;96845.78;;;-3.21;100.00
23589;BME280;11972;48.078;11.876;2024-01-30T05:54:17;96838.94;;;-3.22;100.00
23589;BME280;11972;48.078;11.876;2024-01-30T05:58:18;96842.22;;;-3.19;100.00
23589;BME280;11972;48.078;11.876;2024-01-30T06:02:18;96853.22;;;-3.14;100.00
23589;BME280;11972;48.078;11.876;2024-01-30T06:06:18;96848.00;;;-3.12;100.00
23589;BME280;11972;48.078;11.876;2024-01-30T06:10:19;96853.16;;;-3.12;100.00
23589;BME280;11972;48.078;11.876;2024-01-30T06:14:19;96852.28;;;-3.13;100.00
23589;BME280;11972;48.078;11.876;2024-01-30T06:18:19;96853.22;;;-3.14;100.00
23589;BME280;11972;48.078;11.876;2024-01-30T06:22:20;96852.44;;;-3.16;100.00
23589;BME280;11972;48.078;11.876;2024-01-30T06:26:21;96858.47;;;-3.15;100.00
23589;BME280;11972;48.078;11.876;2024-01-30T06:30:21;96863.53;;;-3.14;100.00
23589;BME280;11972;48.078;11.876;2024-01-30T06:34:21;96856.63;;;-3.13;100.00
23589;BME280;11972;48.078;11.876;2024-01-30T06:38:22;96856.50;;;-3.10;100.00
23589;BME280;11972;48.078;11.876;2024-01-30T06:42:22;96865.88;;;-3.08;100.00
23589;BME280;11972;48.078;11.876;2024-01-30T06:46:22;96865.72;;;-3.05;100.00
23589;BME280;11972;48.078;11.876;2024-01-30T06:50:23;96860.31;;;-2.98;100.00
23589;BME280;11972;48.078;11.876;2024-01-30T06:54:23;96868.69;;;-2.93;100.00
23589;BME280;11972;48.078;11.876;2024-01-30T06:58:23;96870.13;;;-2.86;100.00
23589;BME280;11972;48.078;11.876;2024-01-30T07:02:24;96868.94;;;-2.79;100.00
23589;BME280;11972;48.078;11.876;2024-01-30T07:06:24;96873.63;;;-2.68;100.00
23589;BME280;11972;48.078;11.876;2024-01-30T07:10:24;96875.88;;;-2.61;100.00
23589;BME280;11972;48.078;11.876;2024-01-30T07:14:25;96885.66;;;-2.48;100.00
23589;BME280;11972;48.078;11.876;2024-01-30T07:18:25;96877.22;;;-2.33;100.00
23589;BME280;11972;48.078;11.876;2024-01-30T07:22:25;96886.22;;;-2.23;100.00
23589;BME280;11972;48.078;11.876;2024-01-30T07:26:26;96892.53;;;-2.10;100.00
23589;BME280;11972;48.078;11.876;2024-01-30T07:30:26;96886.63;;;-1.94;100.00
23589;BME280;11972;48.078;11.876;2024-01-30T07:34:26;96886.03;;;-1.82;100.00
23589;BME280;11972;48.078;11.876;2024-01-30T07:38:29;96891.47;;;-1.69;100.00
23589;BME280;11972;48.078;11.876;2024-01-30T07:42:31;96894.94;;;-1.52;100.00
23589;BME280;11972;48.078;11.876;2024-01-30T07:46:32;96894.16;;;-1.36;100.00
23589;BME280;11972;48.078;11.876;2024-01-30T07:50:32;96895.25;;;-1.23;100.00
23589;BME280;11972;48.078;11.876;2024-01-30T07:54:32;96889.28;;;-1.08;100.00
23589;BME280;11972;48.078;11.876;2024-01-30T07:58:39;96889.28;;;-0.90;100.00
23589;BME280;11972;48.078;11.876;2024-01-30T08:02:39;96885.03;;;-0.76;100.00
23589;BME280;11972;48.078;11.876;2024-01-30T08:06:39;96885.00;;;-0.58;100.00
23589;BME280;11972;48.078;11.876;2024-01-30T08:10:40;96886.53;;;-0.38;100.00
23589;BME280;11972;48.078;11.876;2024-01-30T08:14:40;96891.59;;;-0.19;100.00
23589;BME280;11972;48.078;11.876;2024-01-30T08:18:41;96893.13;;;0.01;100.00
23589;BME280;11972;48.078;11.876;2024-01-30T08:22:42;96896.47;;;0.18;100.00
23589;BME280;11972;48.078;11.876;2024-01-30T08:26:42;96896.09;;;0.40;100.00
23589;BME280;11972;48.078;11.876;2024-01-30T08:30:42;96900.66;;;0.67;100.00
23589;BME280;11972;48.078;11.876;2024-01-30T08:34:42;96900.91;;;0.92;100.00
23589;BME280;11972;48.078;11.876;2024-01-30T08:38:43;96899.31;;;1.20;100.00
23589;BME280;11972;48.078;11.876;2024-01-30T08:42:43;96900.25;;;1.47;100.00
23589;BME280;11972;48.078;11.876;2024-01-30T08:46:44;96890.56;;;1.78;100.00
23589;BME280;11972;48.078;11.876;2024-01-30T08:50:45;96891.06;;;2.12;100.00
23589;BME280;11972;48.078;11.876;2024-01-30T08:54:45;96896.19;;;2.40;100.00
23589;BME280;11972;48.078;11.876;2024-01-30T08:58:46;96895.47;;;2.78;100.00
23589;BME280;11972;48.078;11.876;2024-01-30T09:02:46;96899.59;;;3.08;100.00
23589;BME280;11972;48.078;11.876;2024-01-30T09:06:47;96904.25;;;3.42;100.00
23589;BME280;11972;48.078;11.876;2024-01-30T09:10:48;96901.28;;;3.85;100.00
23589;BME280;11972;48.078;11.876;2024-01-30T09:14:49;96907.03;;;4.27;100.00
23589;BME280;11972;48.078;11.876;2024-01-30T09:18:50;96909.72;;;4.62;100.00
23589;BME280;11972;48.078;11.876;2024-01-30T09:22:50;96912.63;;;4.94;100.00
23589;BME280;11972;48.078;11.876;2024-01-30T09:26:50;96913.41;;;5.30;100.00
23589;BME280;11972;48.078;11.876;2024-01-30T09:30:51;96916.13;;;5.64;100.00
23589;BME280;11972;48.078;11.876;2024-01-30T09:34:51;96910.63;;;5.89;100.00
23589;BME280;11972;48.078;11.876;2024-01-30T09:38:51;96910.88;;;6.20;100.00
23589;BME280;11972;48.078;11.876;2024-01-30T09:42:53;96910.59;;;6.45;100.00
23589;BME280;11972;48.078;11.876;2024-01-30T09:46:54;96906.56;;;6.74;100.00
23589;BME280;11972;48.078;11.876;2024-01-30T09:50:57;96898.25;;;7.01;100.00
23589;BME280;11972;48.078;11.876;2024-01-30T09:54:59;96889.03;;;7.27;100.00
23589;BME280;11972;48.078;11.876;2024-01-30T09:59:00;96884.22;;;7.53;100.00
23589;BME280;11972;48.078;11.876;2024-01-30T10:03:00;96883.66;;;7.80;100.00
23589;BME280;11972;48.078;11.876;2024-01-30T10:07:02;96875.28;;;8.06;100.00
23589;BME280;11972;48.078;11.876;2024-01-30T10:11:02;96866.47;;;8.26;100.00
23589;BME280;11972;48.078;11.876;2024-01-30T10:15:07;96849.94;;;8.45;100.00
23589;BME280;11972;48.078;11.876;2024-01-30T10:19:09;96842.31;;;8.71;100.00
23589;BME280;11972;48.078;11.876;2024-01-30T10:23:09;96835.94;;;8.83;100.00
23589;BME280;11972;48.078;11.876;2024-01-30T10:27:10;96829.97;;;9.01;100.00
23589;BME280;11972;48.078;11.876;2024-01-30T10:31:10;96823.28;;;9.16;100.00
23589;BME280;11972;48.078;11.876;2024-01-30T10:35:10;96816.72;;;9.30;100.00
23589;BME280;11972;48.078;11.876;2024-01-30T10:39:11;96812.66;;;9.55;100.00
23589;BME280;11972;48.078;11.876;2024-01-30T10:43:15;96798.94;;;9.79;100.00
23589;BME280;11972;48.078;11.876;2024-01-30T10:47:21;96799.22;;;10.03;100.00
23589;BME280;11972;48.078;11.876;2024-01-30T10:51:23;96784.09;;;10.33;100.00
23589;BME280;11972;48.078;11.876;2024-01-30T10:55:27;96782.56;;;10.66;100.00
23589;BME280;11972;48.078;11.876;2024-01-30T10:59:28;96770.53;;;10.89;100.00
23589;BME280;11972;48.078;11.876;2024-01-30T11:03:32;96765.41;;;11.14;100.00
23589;BME280;11972;48.078;11.876;2024-01-30T11:07:34;96771.53;;;11.40;100.00
23589;BME280;11972;48.078;11.876;2024-01-30T11:11:51;96759.25;;;11.65;100.00
23589;BME280;11972;48.078;11.876;2024-01-30T11:15:52;96759.00;;;11.85;100.00
23589;BME280;11972;48.078;11.876;2024-01-30T11:19:53;96745.69;;;12.03;100.00
23589;BME280;11972;48.078;11.876;2024-01-30T11:23:54;96746.38;;;12.21;100.00
23589;BME280;11972;48.078;11.876;2024-01-30T11:27:58;96737.16;;;12.41;100.00
23589;BME280;11972;48.078;11.876;2024-01-30T11:31:59;96731.84;;;12.66;100.00
23589;BME280;11972;48.078;11.876;2024-01-30T11:36:00;96733.84;;;12.97;100.00
23589;BME280;11972;48.078;11.876;2024-01-30T11:40:02;96719.22;;;13.17;100.00
23589;BME280;11972;48.078;11.876;2024-01-30T11:44:04;96724.53;;;13.33;100.00
23589;BME280;11972;48.078;11.876;2024-01-30T11:48:05;96722.97;;;13.55;100.00
23589;BME280;11972;48.078;11.876;2024-01-30T11:52:05;96720.72;;;13.75;100.00
23589;BME280;11972;48.078;11.876;2024-01-30T11:56:06;96723.66;;;13.88;100.00
23589;BME280;11972;48.078;11.876;2024-01-30T12:00:14;96713.81;;;13.97;100.00
23589;BME280;11972;48.078;11.876;2024-01-30T12:04:15;96700.28;;;14.07;100.00
23589;BME280;11972;48.078;11.876;2024-01-30T12:08:16;96696.28;;;14.11;100.00
23589;BME280;11972;48.078;11.876;2024-01-30T12:12:16;96699.66;;;14.05;100.00
23589;BME280;11972;48.078;11.876;2024-01-30T12:16:17;96686.13;;;13.92;100.00
23589;BME280;11972;48.078;11.876;2024-01-30T12:20:18;96697.31;;;13.79;100.00
23589;BME280;11972;48.078;11.876;2024-01-30T12:24:19;96691.25;;;13.62;100.00
23589;BME280;11972;48.078;11.876;2024-01-30T12:28:20;96691.66;;;13.43;100.00
23589;BME280;11972;48.078;11.876;2024-01-30T12:32:22;96695.16;;;13.19;100.00
23589;BME280;11972;48.078;11.876;2024-01-30T12:36:22;96687.41;;;13.17;100.00
23589;BME280;11972;48.078;11.876;2024-01-30T12:40:23;96691.50;;;13.20;100.00
23589;BME280;11972;48.078;11.876;2024-01-30T12:44:24;96690.34;;;13.22;100.00
23589;BME280;11972;48.078;11.876;2024-01-30T12:48:24;96684.38;;;13.28;100.00
23589;BME280;11972;48.078;11.876;2024-01-30T12:52:25;96685.69;;;13.32;100.00
23589;BME280;11972;48.078;11.876;2024-01-30T12:56:26;96676.88;;;13.40;100.00
23589;BME280;11972;48.078;11.876;2024-01-30T13:00:27;96678.19;;;13.44;100.00
23589;BME280;11972;48.078;11.876;2024-01-30T13:04:27;96671.41;;;13.50;100.00
23589;BME280;11972;48.078;11.876;2024-01-30T13:08:28;96674.84;;;13.58;100.00
23589;BME280;11972;48.078;11.876;2024-01-30T13:12:28;96668.00;;;13.64;100.00
23589;BME280;11972;48.078;11.876;2024-01-30T13:16:29;96666.94;;;13.73;100.00
23589;BME280;11972;48.078;11.876;2024-01-30T13:20:29;96666.75;;;13.83;100.00
23589;BME280;11972;48.078;11.876;2024-01-30T13:24:31;96659.72;;;13.90;100.00
23589;BME280;11972;48.078;11.876;2024-01-30T13:28:31;96666.19;;;13.96;100.00
23589;BME280;11972;48.078;11.876;2024-01-30T13:32:31;96660.81;;;14.04;100.00
23589;BME280;11972;48.078;11.876;2024-01-30T13:36:32;96654.50;;;14.05;100.00
23589;BME280;11972;48.078;11.876;2024-01-30T13:40:32;96655.50;;;14.04;100.00
23589;BME280;11972;48.078;11.876;2024-01-30T13:44:35;96662.81;;;14.02;100.00
23589;BME280;11972;48.078;11.876;2024-01-30T13:48:35;96658.84;;;13.98;100.00
23589;BME280;11972;48.078;11.876;2024-01-30T13:52:35;96662.84;;;13.94;100.00
23589;BME280;11972;48.078;11.876;2024-01-30T13:56:36;96664.06;;;13.91;100.00
23589;BME280;11972;48.078;11.876;2024-01-30T14:00:36;96662.59;;;13.80;100.00
23589;BME280;11972;48.078;11.876;2024-01-30T14:04:37;96667.00;;;13.65;100.00
23589;BME280;11972;48.078;11.876;2024-01-30T14:08:37;96667.59;;;13.44;100.00
23589;BME280;11972;48.078;11.876;2024-01-30T14:12:37;96662.34;;;13.28;100.00
23589;BME280;11972;48.078;11.876;2024-01-30T14:16:38;96663.34;;;13.10;100.00
23589;BME280;11972;48.078;11.876;2024-01-30T14:20:38;96663.56;;;13.01;100.00
23589;BME280;11972;48.078;11.876;2024-01-30T14:24:38;96664.25;;;12.86;100.00
23589;BME280;11972;48.078;11.876;2024-01-30T14:28:39;96672.88;;;12.72;100.00
23589;BME280;11972;48.078;11.876;2024-01-30T14:32:39;96672.06;;;12.55;100.00
23589;BME280;11972;48.078;11.876;2024-01-30T14:36:41;96673.22;;;12.45;100.00
23589;BME280;11972;48.078;11.876;2024-01-30T14:40:41;96675.88;;;12.36;100.00
23589;BME280;11972;48.078;11.876;2024-01-30T14:44:42;96680.16;;;12.21;100.00
23589;BME280;11972;48.078;11.876;2024-01-30T14:48:42;96687.94;;;12.06;100.00
23589;BME280;11972;48.078;11.876;2024-01-30T14:52:43;96682.75;;;11.97;100.00
23589;BME280;11972;48.078;11.876;2024-01-30T14:56:45;96683.47;;;12.07;100.00
23589;BME280;11972;48.078;11.876;2024-01-30T15:00:45;96691.75;;;12.12;100.00
23589;BME280;11972;48.078;11.876;2024-01-30T15:04:46;96698.03;;;12.03;100.00
23589;BME280;11972;48.078;11.876;2024-01-30T15:08:46;96699.63;;;11.87;100.00
23589;BME280;11972;48.078;11.876;2024-01-30T15:12:46;96703.72;;;11.74;100.00
23589;BME280;11972;48.078;11.876;2024-01-30T15:16:47;96696.19;;;11.53;100.00
23589;BME280;11972;48.078;11.876;2024-01-30T15:20:47;96710.13;;;11.29;100.00
23589;BME280;11972;48.078;11.876;2024-01-30T15:24:47;96711.50;;;11.07;100.00
23589;BME280;11972;48.078;11.876;2024-01-30T15:28:48;96715.63;;;10.83;100.00
23589;BME280;11972;48.078;11.876;2024-01-30T15:32:48;96719.97;;;10.66;100.00
23589;BME280;11972;48.078;11.876;2024-01-30T15:36:49;96726.56;;;10.44;100.00
23589;BME280;11972;48.078;11.876;2024-01-30T15:40:49;96729.00;;;10.10;100.00
23589;BME280;11972;48.078;11.876;2024-01-30T15:44:49;96734.00;;;9.68;100.00
23589;BME280;11972;48.078;11.876;2024-01-30T15:48:50;96739.75;;;9.26;100.00
23589;BME280;11972;48.078;11.876;2024-01-30T15:52:50;96739.56;;;8.90;100.00
23589;BME280;11972;48.078;11.876;2024-01-30T15:56:51;96755.13;;;8.55;100.00
23589;BME280;11972;48.078;11.876;2024-01-30T16:00:51;96753.16;;;8.18;100.00
23589;BME280;11972;48.078;11.876;2024-01-30T16:04:52;96756.41;;;7.81;100.00
23589;BME280;11972;48.078;11.876;2024-01-30T16:08:52;96765.00;;;7.43;100.00
23589;BME280;11972;48.078;11.876;2024-01-30T16:12:52;96766.34;;;7.07;100.00
23589;BME280;11972;48.078;11.876;2024-01-30T16:16:53;96780.47;;;6.64;100.00
23589;BME280;11972;48.078;11.876;2024-01-30T16:20:53;96778.09;;;6.29;100.00
23589;BME280;11972;48.078;11.876;2024-01-30T16:24:53;96793.34;;;6.03;100.00
23589;BME280;11972;48.078;11.876;2024-01-30T16:28:54;96793.22;;;5.82;100.00
23589;BME280;11972;48.078;11.876;2024-01-30T16:32:54;96795.03;;;5.59;100.00
23589;BME280;11972;48.078;11.876;2024-01-30T16:36:54;96797.44;;;5.39;100.00
23589;BME280;11972;48.078;11.876;2024-01-30T16:40:55;96809.31;;;5.21;100.00
23589;BME280;11972;48.078;11.876;2024-01-30T16:44:55;96813.84;;;5.08;100.00
23589;BME280;11972;48.078;11.876;2024-01-30T16:48:55;96827.81;;;4.84;100.00
23589;BME280;11972;48.078;11.876;2024-01-30T16:52:56;96836.06;;;4.56;100.00
23589;BME280;11972;48.078;11.876;2024-01-30T16:56:56;96842.16;;;4.32;100.00
23589;BME280;11972;48.078;11.876;2024-01-30T17:00:57;96841.59;;;4.16;100.00
23589;BME280;11972;48.078;11.876;2024-01-30T17:04:57;96842.69;;;4.01;100.00
23589;BME280;11972;48.078;11.876;2024-01-30T17:08:59;96853.06;;;3.89;100.00
23589;BME280;11972;48.078;11.876;2024-01-30T17:13:00;96849.44;;;3.79;100.00
23589;BME280;11972;48.078;11.876;2024-01-30T17:17:00;96854.47;;;3.69;100.00
23589;BME280;11972;48.078;11.876;2024-01-30T17:21:02;96864.22;;;3.55;100.00
23589;BME280;11972;48.078;11.876;2024-01-30T17:25:07;96866.72;;;3.43;100.00
23589;BME280;11972;48.078;11.876;2024-01-30T17:29:07;96867.34;;;3.34;100.00
23589;BME280;11972;48.078;11.876;2024-01-30T17:33:08;96867.44;;;3.33;100.00
23589;BME280;11972;48.078;11.876;2024-01-30T17:37:08;96875.91;;;3.36;100.00
23589;BME280;11972;48.078;11.876;2024-01-30T17:41:08;96868.06;;;3.36;100.00
23589;BME280;11972;48.078;11.876;2024-01-30T17:45:09;96878.72;;;3.33;100.00
23589;BME280;11972;48.078;11.876;2024-01-30T17:49:10;96888.13;;;3.23;100.00
23589;BME280;11972;48.078;11.876;2024-01-30T17:53:10;96881.25;;;3.09;100.00
23589;BME280;11972;48.078;11.876;2024-01-30T17:57:11;96881.00;;;2.99;100.00
23589;BME280;11972;48.078;11.876;2024-01-30T18:01:12;96885.19;;;2.89;100.00
23589;BME280;11972;48.078;11.876;2024-01-30T18:05:14;96892.75;;;2.80;100.00
23589;BME280;11972;48.078;11.876;2024-01-30T18:09:14;96903.16;;;2.67;100.00
23589;BME280;11972;48.078;11.876;2024-01-30T18:13:14;96897.91;;;2.54;100.00
23589;BME280;11972;48.078;11.876;2024-01-30T18:17:16;96902.13;;;2.42;100.00
23589;BME280;11972;48.078;11.876;2024-01-30T18:21:17;96913.34;;;2.30;100.00
23589;BME280;11972;48.078;11.876;2024-01-30T18:25:17;96901.84;;;2.20;100.00
23589;BME280;11972;48.078;11.876;2024-01-30T18:29:18;96908.84;;;2.05;100.00
23589;BME280;11972;48.078;11.876;2024-01-30T18:33:18;96913.63;;;1.98;100.00
23589;BME280;11972;48.078;11.876;2024-01-30T18:37:18;96916.69;;;1.91;100.00
23589;BME280;11972;48.078;11.876;2024-01-30T18:41:19;96918.28;;;1.79;100.00
23589;BME280;11972;48.078;11.876;2024-01-30T18:45:19;96922.59;;;1.66;100.00
23589;BME280;11972;48.078;11.876;2024-01-30T18:49:20;96920.53;;;1.57;100.00
23589;BME280;11972;48.078;11.876;2024-01-30T18:53:20;96917.56;;;1.48;100.00
23589;BME280;11972;48.078;11.876;2024-01-30T18:57:21;96922.94;;;1.45;100.00
23589;BME280;11972;48.078;11.876;2024-01-30T19:01:21;96921.84;;;1.49;100.00
23589;BME280;11972;48.078;11.876;2024-01-30T19:05:21;96925.38;;;1.48;100.00
23589;BME280;11972;48.078;11.876;2024-01-30T19:09:22;96925.53;;;1.45;100.00
23589;BME280;11972;48.078;11.876;2024-01-30T19:13:22;96928.22;;;1.44;100.00
23589;BME280;11972;48.078;11.876;2024-01-30T19:17:22;96932.81;;;1.40;100.00
23589;BME280;11972;48.078;11.876;2024-01-30T19:21:24;96934.38;;;1.43;100.00
23589;BME280;11972;48.078;11.876;2024-01-30T19:25:24;96942.00;;;1.46;100.00
23589;BME280;11972;48.078;11.876;2024-01-30T19:29:25;96931.31;;;1.51;100.00
23589;BME280;11972;48.078;11.876;2024-01-30T19:33:26;96933.56;;;1.57;100.00
23589;BME280;11972;48.078;11.876;2024-01-30T19:37:27;96948.81;;;1.63;100.00
23589;BME280;11972;48.078;11.876;2024-01-30T19:41:27;96941.75;;;1.65;100.00
23589;BME280;11972;48.078;11.876;2024-01-30T19:45:29;96936.53;;;1.65;100.00
23589;BME280;11972;48.078;11.876;2024-01-30T19:49:29;96939.88;;;1.67;100.00
23589;BME280;11972;48.078;11.876;2024-01-30T19:53:33;96949.94;;;1.73;100.00
23589;BME280;11972;48.078;11.876;2024-01-30T19:57:33;96948.72;;;1.79;100.00
23589;BME280;11972;48.078;11.876;2024-01-30T20:01:33;96951.81;;;1.85;100.00
23589;BME280;11972;48.078;11.876;2024-01-30T20:05:34;96950.47;;;1.92;100.00
23589;BME280;11972;48.078;11.876;2024-01-30T20:09:34;96958.84;;;1.97;100.00
23589;BME280;11972;48.078;11.876;2024-01-30T20:13:34;96960.16;;;2.05;100.00
23589;BME280;11972;48.078;11.876;2024-01-30T20:17:40;96948.41;;;2.12;100.00
23589;BME280;11972;48.078;11.876;2024-01-30T20:21:40;96961.06;;;2.18;100.00
23589;BME280;11972;48.078;11.876;2024-01-30T20:25:42;96964.31;;;2.21;100.00
23589;BME280;11972;48.078;11.876;2024-01-30T20:29:43;96960.69;;;2.24;100.00
23589;BME280;11972;48.078;11.876;2024-01-30T20:33:43;96965.25;;;2.20;100.00
23589;BME280;11972;48.078;11.876;2024-01-30T20:37:44;96968.97;;;2.16;100.00
23589;BME280;11972;48.078;11.876;2024-01-30T20:41:46;96967.69;;;2.09;100.00
23589;BME280;11972;48.078;11.876;2024-01-30T20:45:47;96981.19;;;2.02;100.00